createdAt,value
2023-03-24T00:02:21.935Z,7.03
2023-03-24T00:04:53.300Z,6.94
2023-03-24T00:07:25.251Z,6.94
2023-03-24T00:09:56.120Z,7.12
2023-03-24T00:12:25.294Z,7.01
2023-03-24T00:14:55.293Z,7.05
2023-03-24T00:17:29.511Z,6.91
2023-03-24T00:19:58.742Z,6.98
2023-03-24T00:22:28.518Z,6.96
2023-03-24T00:24:58.978Z,7.05
2023-03-24T00:27:30.453Z,6.89
2023-03-24T00:30:00.346Z,6.89
2023-03-24T00:32:30.454Z,6.88
2023-03-24T00:35:00.438Z,6.74
2023-03-24T00:37:29.726Z,6.67
2023-03-24T00:40:00.312Z,6.55
2023-03-24T00:42:29.395Z,6.59
2023-03-24T00:44:58.494Z,6.58
2023-03-24T00:47:27.878Z,6.51
2023-03-24T00:49:57.864Z,6.38
2023-03-24T00:52:34.145Z,6.32
2023-03-24T00:55:09.034Z,6.30
2023-03-24T00:57:40.772Z,6.28
2023-03-24T01:00:14.381Z,6.33
2023-03-24T01:02:43.654Z,6.50
2023-03-24T01:05:12.741Z,6.57
2023-03-24T01:07:43.366Z,6.66
2023-03-24T01:10:16.267Z,6.74
2023-03-24T01:12:45.377Z,6.77
2023-03-24T01:15:21.289Z,6.68
2023-03-24T01:17:50.719Z,6.53
2023-03-24T01:20:22.939Z,6.35
2023-03-24T01:22:53.301Z,6.26
2023-03-24T01:25:25.888Z,6.34
2023-03-24T01:27:56.076Z,6.36
2023-03-24T01:30:28.588Z,6.24
2023-03-24T01:32:58.343Z,6.15
2023-03-24T01:35:29.571Z,6.07
2023-03-24T01:38:00.957Z,6.06
2023-03-24T01:40:34.830Z,6.05
2023-03-24T01:43:04.713Z,6.02
2023-03-24T01:46:16.327Z,5.92
2023-03-24T01:48:52.481Z,5.84
2023-03-24T01:51:26.269Z,5.80
2023-03-24T01:54:01.247Z,5.93
2023-03-24T01:56:36.667Z,5.99
2023-03-24T01:59:11.159Z,5.99
2023-03-24T02:02:04.343Z,5.91
2023-03-24T02:04:54.197Z,6.06
2023-03-24T02:07:34.330Z,6.16
2023-03-24T02:10:07.729Z,6.11
2023-03-24T02:12:38.340Z,5.98
2023-03-24T02:15:11.550Z,5.84
2023-03-24T02:17:59.095Z,5.83
2023-03-24T02:20:54.527Z,5.73
2023-03-24T02:24:00.644Z,5.72
2023-03-24T02:26:55.869Z,5.70
2023-03-24T02:30:15.420Z,5.78
2023-03-24T02:33:43.254Z,5.79
2023-03-24T02:36:48.504Z,5.86
2023-03-24T02:39:56.227Z,5.83
2023-03-24T02:42:43.449Z,5.80
2023-03-24T02:45:26.399Z,5.80
2023-03-24T02:48:14.772Z,5.93
2023-03-24T02:50:52.293Z,5.76
2023-03-24T02:53:31.361Z,5.77
2023-03-24T02:56:32.230Z,5.86
2023-03-24T02:59:19.038Z,5.93
2023-03-24T03:01:57.736Z,6.06
2023-03-24T03:04:49.932Z,6.15
2023-03-24T03:07:23.225Z,6.14
2023-03-24T03:10:01.395Z,6.29
2023-03-24T03:12:36.872Z,6.29
2023-03-24T03:15:12.277Z,6.27
2023-03-24T03:17:48.400Z,6.22
2023-03-24T03:20:24.416Z,6.31
2023-03-24T03:22:59.818Z,6.45
2023-03-24T03:25:34.598Z,6.46
2023-03-24T03:28:07.780Z,6.57
2023-03-24T03:30:42.222Z,6.69
2023-03-24T03:33:25.946Z,6.70
2023-03-24T03:35:59.998Z,6.60
2023-03-24T03:38:41.409Z,6.69
2023-03-24T03:41:10.704Z,6.58
2023-03-24T03:43:41.247Z,6.57
2023-03-24T03:46:10.558Z,6.54
2023-03-24T03:48:42.152Z,6.75
2023-03-24T03:51:14.159Z,6.74
2023-03-24T03:53:56.469Z,6.70
2023-03-24T03:56:29.380Z,6.57
2023-03-24T03:59:29.739Z,6.55
2023-03-24T04:02:06.055Z,6.63
2023-03-24T04:05:07.026Z,6.62
2023-03-24T04:08:18.192Z,6.25
2023-03-24T04:11:33.569Z,6.02
2023-03-24T04:14:44.858Z,5.96
2023-03-24T04:17:47.133Z,5.98
2023-03-24T04:20:38.351Z,6.01
2023-03-24T04:23:26.448Z,6.02
2023-03-24T04:26:10.547Z,6.01
2023-03-24T04:28:48.622Z,6.16
2023-03-24T04:31:27.759Z,6.27
2023-03-24T04:34:03.684Z,6.24
2023-03-24T04:36:42.840Z,6.18
2023-03-24T04:39:35.016Z,6.11
2023-03-24T04:42:17.820Z,6.17
2023-03-24T04:44:51.422Z,6.13
2023-03-24T04:47:44.109Z,6.10
2023-03-24T04:50:37.300Z,6.06
2023-03-24T04:53:11.344Z,6.04
2023-03-24T04:56:07.502Z,5.96
2023-03-24T04:58:58.759Z,5.93
2023-03-24T05:01:30.397Z,5.97
2023-03-24T05:04:26.359Z,6.05
2023-03-24T05:06:56.835Z,6.07
2023-03-24T05:09:31.496Z,6.10
2023-03-24T05:12:02.165Z,6.10
2023-03-24T05:14:35.588Z,6.10
2023-03-24T05:17:06.889Z,6.05
2023-03-24T05:19:37.491Z,6.06
2023-03-24T05:22:06.577Z,6.05
2023-03-24T05:24:36.040Z,6.09
2023-03-24T05:27:05.099Z,6.13
2023-03-24T05:29:35.311Z,6.18
2023-03-24T05:32:04.713Z,6.22
2023-03-24T05:34:33.958Z,6.20
2023-03-24T05:37:17.730Z,6.11
2023-03-24T05:39:50.956Z,6.12
2023-03-24T05:42:50.426Z,6.35
2023-03-24T05:45:20.601Z,6.47
2023-03-24T05:47:51.407Z,6.51
2023-03-24T05:50:26.005Z,6.54
2023-03-24T05:52:56.432Z,6.61
2023-03-24T05:55:42.544Z,6.65
2023-03-24T05:58:34.587Z,6.78
2023-03-24T06:01:10.279Z,6.85
2023-03-24T06:03:40.906Z,6.90
2023-03-24T06:06:17.085Z,6.78
2023-03-24T06:08:47.800Z,6.87
2023-03-24T06:11:18.475Z,7.01
2023-03-24T06:13:59.120Z,7.23
2023-03-24T06:16:30.204Z,7.46
2023-03-24T06:19:03.871Z,7.69
2023-03-24T06:21:56.636Z,8.06
2023-03-24T06:24:33.112Z,8.33
2023-03-24T06:27:08.945Z,8.68
2023-03-24T06:29:38.809Z,9.12
2023-03-24T06:32:08.772Z,9.56
2023-03-24T06:34:43.910Z,9.92
2023-03-24T06:37:42.903Z,10.39
2023-03-24T06:40:17.642Z,10.77
2023-03-24T06:42:57.570Z,11.22
2023-03-24T06:45:26.833Z,11.60
2023-03-24T06:47:56.869Z,11.91
2023-03-24T06:50:30.833Z,12.10
2023-03-24T06:52:59.979Z,12.33
2023-03-24T06:55:32.450Z,12.49
2023-03-24T06:58:01.614Z,12.75
2023-03-24T07:00:30.796Z,12.83
2023-03-24T07:03:16.206Z,12.83
2023-03-24T07:05:55.562Z,12.95
2023-03-24T07:08:37.201Z,13.12
2023-03-24T07:11:10.162Z,13.32
2023-03-24T07:13:42.680Z,13.50
2023-03-24T07:16:11.660Z,13.67
2023-03-24T07:18:41.967Z,13.66
2023-03-24T07:21:11.658Z,13.81
2023-03-24T07:23:40.583Z,14.05
2023-03-24T07:26:14.992Z,14.16
2023-03-24T07:28:50.311Z,14.38
2023-03-24T07:31:42.398Z,14.76
2023-03-24T07:34:14.683Z,15.12
2023-03-24T07:36:43.837Z,15.42
2023-03-24T07:39:17.216Z,15.59
2023-03-24T07:41:48.286Z,15.79
2023-03-24T07:44:27.405Z,16.11
2023-03-24T07:46:56.459Z,16.35
2023-03-24T07:49:25.985Z,16.63
2023-03-24T07:52:07.268Z,17.01
2023-03-24T07:54:48.324Z,17.54
2023-03-24T07:57:38.324Z,18.14
2023-03-24T08:00:16.042Z,18.61
2023-03-24T08:02:54.077Z,18.67
2023-03-24T08:05:43.524Z,18.96
2023-03-24T08:08:22.499Z,18.83
2023-03-24T08:10:51.589Z,18.84
2023-03-24T08:13:22.565Z,19.01
2023-03-24T08:15:53.221Z,19.11
2023-03-24T08:18:22.713Z,19.17
2023-03-24T08:20:55.469Z,19.15
2023-03-24T08:23:25.015Z,19.20
2023-03-24T08:25:53.979Z,19.28
2023-03-24T08:28:24.646Z,19.46
2023-03-24T08:30:53.563Z,19.70
2023-03-24T08:33:22.657Z,20.22
2023-03-24T08:35:52.813Z,20.57
2023-03-24T08:38:23.130Z,20.81
2023-03-24T08:40:53.209Z,20.74
2023-03-24T08:43:23.311Z,20.65
2023-03-24T08:45:53.830Z,20.87
2023-03-24T08:48:23.066Z,20.93
2023-03-24T08:50:52.398Z,21.27
2023-03-24T08:53:21.917Z,21.53
2023-03-24T08:55:51.484Z,21.13
2023-03-24T08:58:23.039Z,20.92
2023-03-24T09:00:53.338Z,20.69
2023-03-24T09:03:23.139Z,20.85
2023-03-24T09:05:52.288Z,20.97
2023-03-24T09:08:21.383Z,21.38
2023-03-24T09:10:51.416Z,22.01
2023-03-24T09:13:21.378Z,22.40
2023-03-24T09:15:53.541Z,22.16
2023-03-24T09:18:23.534Z,21.91
2023-03-24T09:20:52.874Z,21.95
2023-03-24T09:23:22.693Z,21.25
2023-03-24T09:25:52.074Z,20.99
2023-03-24T09:28:21.921Z,21.08
2023-03-24T09:30:51.498Z,20.49
2023-03-24T09:33:22.062Z,20.27
2023-03-24T09:35:57.788Z,20.41
2023-03-24T09:38:29.859Z,20.65
2023-03-24T09:41:02.867Z,21.00
2023-03-24T09:43:41.956Z,20.85
2023-03-24T09:46:16.520Z,21.07
2023-03-24T09:48:52.174Z,21.10
2023-03-24T09:51:26.627Z,21.39
2023-03-24T09:54:07.549Z,21.42
2023-03-24T09:56:39.523Z,20.60
2023-03-24T09:59:15.114Z,21.10
2023-03-24T10:01:44.154Z,21.21
2023-03-24T10:04:19.409Z,21.54
2023-03-24T10:06:53.437Z,21.34
2023-03-24T10:09:28.653Z,21.78
2023-03-24T10:12:16.313Z,22.16
2023-03-24T10:15:11.502Z,22.69
2023-03-24T10:17:52.547Z,23.11
2023-03-24T10:20:33.937Z,23.11
2023-03-24T10:23:18.335Z,23.15
2023-03-24T10:25:55.862Z,22.61
2023-03-24T10:28:32.694Z,22.35
2023-03-24T10:31:06.961Z,22.57
2023-03-24T10:33:40.328Z,23.19
2023-03-24T10:36:14.988Z,23.76
2023-03-24T10:38:44.089Z,24.45
2023-03-24T10:41:19.094Z,25.24
2023-03-24T10:43:48.919Z,25.40
2023-03-24T10:46:22.301Z,24.85
2023-03-24T10:48:54.526Z,24.74
2023-03-24T10:51:28.942Z,25.35
2023-03-24T10:54:13.285Z,25.63
2023-03-24T10:56:45.222Z,25.66
2023-03-24T10:59:27.477Z,25.49
2023-03-24T11:02:03.957Z,25.28
2023-03-24T11:04:33.751Z,25.37
2023-03-24T11:07:08.730Z,25.74
2023-03-24T11:09:42.650Z,25.95
2023-03-24T11:12:27.535Z,25.93
2023-03-24T11:15:20.980Z,26.10
2023-03-24T11:17:58.267Z,26.51
2023-03-24T11:20:33.181Z,27.03
2023-03-24T11:23:07.331Z,27.67
2023-03-24T11:25:40.510Z,27.92
2023-03-24T11:28:17.805Z,28.05
2023-03-24T11:30:50.874Z,27.98
2023-03-24T11:33:35.506Z,26.71
2023-03-24T11:36:30.381Z,26.11
2023-03-24T11:39:03.508Z,26.14
2023-03-24T11:41:32.529Z,25.60
2023-03-24T11:44:18.983Z,25.83
2023-03-24T11:46:53.345Z,26.94
2023-03-24T11:49:28.530Z,27.93
2023-03-24T11:51:57.714Z,28.73
2023-03-24T11:54:33.262Z,28.69
2023-03-24T11:57:08.377Z,28.91
2023-03-24T11:59:50.446Z,27.74
2023-03-24T12:02:35.586Z,26.97
2023-03-24T12:05:22.550Z,26.30
2023-03-24T12:08:24.857Z,25.14
2023-03-24T12:11:08.651Z,25.08
2023-03-24T12:13:40.538Z,24.87
2023-03-24T12:16:43.352Z,24.78
2023-03-24T12:20:02.294Z,25.01
2023-03-24T12:22:51.033Z,25.73
2023-03-24T12:25:34.517Z,25.96
2023-03-24T12:28:26.001Z,27.06
2023-03-24T12:31:11.464Z,25.72
2023-03-24T12:33:54.736Z,25.34
2023-03-24T12:36:40.531Z,25.68
2023-03-24T12:39:12.632Z,25.36
2023-03-24T12:42:11.367Z,24.77
2023-03-24T12:45:23.884Z,24.12
2023-03-24T12:48:26.740Z,23.75
2023-03-24T12:51:09.096Z,23.35
2023-03-24T12:53:53.632Z,23.48
2023-03-24T12:56:27.909Z,23.38
2023-03-24T12:59:02.480Z,23.26
2023-03-24T13:01:38.593Z,23.06
2023-03-24T13:04:12.235Z,23.01
2023-03-24T13:06:49.909Z,22.94
2023-03-24T13:09:40.147Z,22.81
2023-03-24T13:12:17.264Z,22.77
2023-03-24T13:14:56.415Z,22.55
2023-03-24T13:17:32.126Z,22.38
2023-03-24T13:20:06.370Z,22.35
2023-03-24T13:22:38.788Z,22.35
2023-03-24T13:25:24.801Z,22.32
2023-03-24T13:27:58.101Z,22.32
2023-03-24T13:30:36.254Z,22.29
2023-03-24T13:33:15.477Z,22.27
2023-03-24T13:36:13.760Z,22.22
2023-03-24T13:38:47.621Z,22.22
2023-03-24T13:41:24.147Z,22.25
2023-03-24T13:44:01.299Z,22.14
2023-03-24T13:46:30.947Z,22.23
2023-03-24T13:49:01.409Z,22.27
2023-03-24T13:51:34.083Z,22.31
2023-03-24T13:54:08.314Z,22.36
2023-03-24T13:56:40.673Z,22.43
2023-03-24T13:59:25.780Z,22.36
2023-03-24T14:02:25.125Z,22.28
2023-03-24T14:05:12.378Z,22.42
2023-03-24T14:07:48.585Z,22.70
2023-03-24T14:10:46.642Z,23.10
2023-03-24T14:13:36.758Z,23.53
2023-03-24T14:16:36.228Z,24.54
2023-03-24T14:19:25.590Z,25.09
2023-03-24T14:22:05.304Z,25.11
2023-03-24T14:24:34.631Z,25.37
2023-03-24T14:27:24.541Z,25.53
2023-03-24T14:29:54.356Z,25.80
2023-03-24T14:32:23.762Z,26.08
2023-03-24T14:34:56.994Z,25.99
2023-03-24T14:37:30.118Z,25.52
2023-03-24T14:40:00.995Z,24.95
2023-03-24T14:43:16.582Z,24.59
2023-03-24T14:46:03.045Z,23.62
2023-03-24T14:48:47.419Z,23.41
2023-03-24T14:51:39.643Z,23.12
2023-03-24T14:54:18.236Z,22.92
2023-03-24T14:56:53.687Z,22.57
2023-03-24T14:59:36.730Z,22.27
2023-03-24T15:02:21.609Z,22.09
2023-03-24T15:05:26.378Z,21.71
2023-03-24T15:08:13.496Z,21.59
2023-03-24T15:10:49.736Z,21.45
2023-03-24T15:13:36.101Z,21.45
2023-03-24T15:16:17.837Z,21.45
2023-03-24T15:19:00.656Z,21.47
2023-03-24T15:21:35.288Z,21.50
2023-03-24T15:24:27.196Z,21.49
2023-03-24T15:27:20.402Z,21.61
2023-03-24T15:29:57.675Z,21.69
2023-03-24T15:32:31.927Z,21.62
2023-03-24T15:35:07.129Z,21.51
2023-03-24T15:37:41.418Z,21.39
2023-03-24T15:40:38.612Z,21.38
2023-03-24T15:43:20.591Z,22.35
2023-03-24T15:46:04.732Z,25.22
2023-03-24T15:48:41.162Z,27.77
2023-03-24T15:51:15.182Z,29.25
2023-03-24T15:53:51.028Z,29.68
2023-03-24T15:56:27.193Z,29.65
2023-03-24T15:59:15.185Z,29.14
2023-03-24T16:01:45.516Z,26.58
2023-03-24T16:04:17.632Z,23.89
2023-03-24T16:06:53.445Z,22.69
2023-03-24T16:09:27.230Z,22.09
2023-03-24T16:11:56.430Z,21.71
2023-03-24T16:14:28.800Z,21.42
2023-03-24T16:17:02.311Z,21.27
2023-03-24T16:19:33.837Z,21.38
2023-03-24T16:22:03.064Z,21.68
2023-03-24T16:24:33.053Z,22.04
2023-03-24T16:27:02.138Z,22.65
2023-03-24T16:29:32.838Z,22.78
2023-03-24T16:32:01.866Z,22.36
2023-03-24T16:34:31.689Z,21.97
2023-03-24T16:37:00.714Z,21.56
2023-03-24T16:39:31.072Z,21.13
2023-03-24T16:42:00.306Z,20.76
2023-03-24T16:44:29.419Z,20.53
2023-03-24T16:46:59.973Z,20.34
2023-03-24T16:49:29.187Z,20.04
2023-03-24T16:51:58.202Z,19.62
2023-03-24T16:54:27.389Z,19.36
2023-03-24T16:56:56.505Z,19.16
2023-03-24T16:59:27.093Z,18.99
2023-03-24T17:01:56.572Z,19.17
2023-03-24T17:04:27.449Z,18.81
2023-03-24T17:06:57.055Z,18.74
2023-03-24T17:09:26.797Z,18.43
2023-03-24T17:11:58.490Z,18.31
2023-03-24T17:14:27.485Z,17.77
2023-03-24T17:16:56.728Z,17.70
2023-03-24T17:19:27.167Z,17.77
2023-03-24T17:22:02.230Z,17.43
2023-03-24T17:24:35.887Z,17.34
2023-03-24T17:27:11.282Z,17.21
2023-03-24T17:29:40.470Z,17.27
2023-03-24T17:32:10.332Z,17.34
2023-03-24T17:34:42.879Z,17.15
2023-03-24T17:37:11.980Z,17.05
2023-03-24T17:39:41.233Z,16.86
2023-03-24T17:42:10.422Z,16.88
2023-03-24T17:44:39.447Z,16.66
2023-03-24T17:47:08.602Z,16.44
2023-03-24T17:49:37.841Z,16.37
2023-03-24T17:52:08.524Z,16.24
2023-03-24T17:54:37.826Z,16.11
2023-03-24T17:57:07.511Z,15.97
2023-03-24T17:59:38.928Z,15.84
2023-03-24T18:02:08.805Z,15.72
2023-03-24T18:04:38.272Z,15.61
2023-03-24T18:07:09.617Z,15.55
2023-03-24T18:09:39.172Z,15.40
2023-03-24T18:12:08.935Z,15.39
2023-03-24T18:14:37.994Z,15.31
2023-03-24T18:17:07.292Z,15.21
2023-03-24T18:19:37.660Z,15.17
2023-03-24T18:22:08.285Z,15.08
2023-03-24T18:24:37.804Z,14.95
2023-03-24T18:27:09.943Z,14.82
2023-03-24T18:29:39.784Z,14.74
2023-03-24T18:32:09.006Z,14.65
2023-03-24T18:34:39.054Z,14.52
2023-03-24T18:37:09.651Z,14.40
2023-03-24T18:39:40.625Z,14.26
2023-03-24T18:42:10.266Z,14.15
2023-03-24T18:44:39.377Z,14.09
2023-03-24T18:47:08.403Z,13.98
2023-03-24T18:49:37.545Z,13.86
2023-03-24T18:52:08.445Z,13.79
2023-03-24T18:54:40.507Z,13.67
2023-03-24T18:57:09.978Z,13.56
2023-03-24T18:59:39.484Z,13.54
2023-03-24T19:02:12.229Z,13.51
2023-03-24T19:04:42.257Z,13.45
2023-03-24T19:07:14.538Z,13.46
2023-03-24T19:09:48.401Z,13.42
2023-03-24T19:12:18.031Z,13.42
2023-03-24T19:14:49.849Z,13.51
2023-03-24T19:17:19.384Z,13.35
2023-03-24T19:19:48.413Z,13.31
2023-03-24T19:22:21.712Z,13.27
2023-03-24T19:24:53.098Z,13.23
2023-03-24T19:27:23.269Z,13.28
2023-03-24T19:29:52.399Z,13.27
2023-03-24T19:32:21.475Z,13.23
2023-03-24T19:34:50.490Z,13.18
2023-03-24T19:37:20.071Z,13.12
2023-03-24T19:39:49.084Z,13.02
2023-03-24T19:42:19.755Z,12.90
2023-03-24T19:44:48.798Z,12.83
2023-03-24T19:47:17.837Z,12.64
2023-03-24T19:49:47.185Z,12.68
2023-03-24T19:52:16.999Z,12.65
2023-03-24T19:54:50.057Z,12.52
2023-03-24T19:57:25.890Z,12.43
2023-03-24T19:59:56.455Z,12.35
2023-03-24T20:02:27.251Z,12.12
2023-03-24T20:04:56.648Z,12.04
2023-03-24T20:07:26.814Z,11.92
2023-03-24T20:09:55.896Z,11.82
2023-03-24T20:12:27.841Z,11.77
2023-03-24T20:14:57.858Z,11.72
2023-03-24T20:17:28.849Z,11.78
2023-03-24T20:19:58.013Z,11.79
2023-03-24T20:22:27.162Z,11.75
2023-03-24T20:24:56.465Z,11.80
2023-03-24T20:27:26.995Z,11.76
2023-03-24T20:29:56.107Z,11.77
2023-03-24T20:32:25.329Z,11.78
2023-03-24T20:34:54.961Z,11.86
2023-03-24T20:37:33.143Z,11.89
2023-03-24T20:40:02.395Z,11.83
2023-03-24T20:42:36.312Z,11.78
2023-03-24T20:45:07.596Z,11.58
2023-03-24T20:47:37.585Z,11.74
2023-03-24T20:50:08.616Z,11.89
2023-03-24T20:52:38.004Z,11.79
2023-03-24T20:55:08.941Z,11.84
2023-03-24T20:57:39.627Z,11.67
2023-03-24T21:00:14.416Z,11.62
2023-03-24T21:02:44.488Z,11.54
2023-03-24T21:05:13.602Z,11.56
2023-03-24T21:07:44.030Z,11.75
2023-03-24T21:10:14.515Z,11.80
2023-03-24T21:12:52.808Z,11.69
2023-03-24T21:15:25.361Z,11.67
2023-03-24T21:17:54.834Z,11.64
2023-03-24T21:20:26.963Z,11.57
2023-03-24T21:22:56.331Z,11.44
2023-03-24T21:25:29.065Z,11.45
2023-03-24T21:28:00.792Z,11.55
2023-03-24T21:30:37.141Z,11.65
2023-03-24T21:33:06.663Z,11.78
2023-03-24T21:35:35.757Z,11.86
2023-03-24T21:38:05.699Z,11.95
2023-03-24T21:40:35.368Z,12.02
2023-03-24T21:43:06.771Z,12.11
2023-03-24T21:45:37.261Z,12.16
2023-03-24T21:48:08.148Z,12.08
2023-03-24T21:50:39.042Z,12.02
2023-03-24T21:53:15.386Z,12.06
2023-03-24T21:55:51.844Z,12.03
2023-03-24T21:58:23.275Z,12.02
2023-03-24T22:00:53.127Z,12.10
2023-03-24T22:03:22.868Z,12.14
2023-03-24T22:05:54.583Z,12.14
2023-03-24T22:08:26.736Z,12.08
2023-03-24T22:10:58.079Z,12.12
2023-03-24T22:13:29.787Z,12.06
2023-03-24T22:16:03.460Z,11.94
2023-03-24T22:18:34.766Z,11.93
2023-03-24T22:21:07.061Z,11.85
2023-03-24T22:23:39.478Z,11.72
2023-03-24T22:26:11.315Z,11.68
2023-03-24T22:28:43.093Z,11.61
2023-03-24T22:31:14.006Z,11.42
2023-03-24T22:33:44.167Z,11.41
2023-03-24T22:36:13.648Z,11.50
2023-03-24T22:38:42.660Z,11.94
2023-03-24T22:41:13.924Z,12.20
2023-03-24T22:43:44.425Z,12.12
2023-03-24T22:46:13.658Z,12.00
2023-03-24T22:48:45.338Z,11.61
2023-03-24T22:51:19.137Z,11.41
2023-03-24T22:53:51.124Z,11.30
2023-03-24T22:56:20.343Z,11.25
2023-03-24T22:58:51.677Z,11.43
2023-03-24T23:01:21.122Z,11.37
2023-03-24T23:03:50.244Z,11.40
2023-03-24T23:06:22.284Z,11.36
2023-03-24T23:08:53.476Z,11.31
2023-03-24T23:11:23.037Z,11.40
2023-03-24T23:13:54.163Z,11.51
2023-03-24T23:16:23.341Z,11.70
2023-03-24T23:18:52.771Z,11.68
2023-03-24T23:21:21.789Z,11.72
2023-03-24T23:23:51.170Z,11.82
2023-03-24T23:26:25.606Z,11.65
2023-03-24T23:28:57.338Z,11.59
2023-03-24T23:31:29.151Z,11.50
2023-03-24T23:33:59.294Z,11.48
2023-03-24T23:36:28.743Z,11.63
2023-03-24T23:38:57.890Z,11.65
2023-03-24T23:41:26.948Z,11.75
2023-03-24T23:43:57.600Z,11.54
2023-03-24T23:46:26.696Z,11.51
2023-03-24T23:48:56.016Z,11.60
2023-03-24T23:51:25.032Z,11.70
2023-03-24T23:53:54.104Z,11.55
2023-03-24T23:56:25.166Z,11.51
2023-03-24T23:58:54.198Z,11.50
